createdAt,value
2023-08-29T00:02:19.082Z,73.70
2023-08-29T00:04:46.091Z,73.80
2023-08-29T00:07:13.045Z,73.80
2023-08-29T00:09:40.061Z,73.90
2023-08-29T00:12:07.281Z,73.90
2023-08-29T00:14:35.286Z,74.00
2023-08-29T00:17:02.305Z,74.10
2023-08-29T00:19:29.228Z,74.10
2023-08-29T00:21:56.153Z,74.20
2023-08-29T00:24:23.071Z,74.20
2023-08-29T00:26:50.037Z,74.30
2023-08-29T00:29:17.365Z,74.30
2023-08-29T00:31:44.328Z,74.20
2023-08-29T00:34:11.257Z,74.30
2023-08-29T00:36:38.234Z,74.30
2023-08-29T00:39:05.488Z,74.40
2023-08-29T00:41:32.427Z,74.40
2023-08-29T00:43:59.360Z,74.40
2023-08-29T00:46:26.951Z,74.40
2023-08-29T00:48:53.966Z,74.40
2023-08-29T00:51:21.100Z,74.40
2023-08-29T00:53:48.499Z,74.50
2023-08-29T00:56:19.160Z,74.50
2023-08-29T00:58:46.081Z,74.50
2023-08-29T01:01:13.870Z,74.60
2023-08-29T01:03:40.969Z,74.60
2023-08-29T01:06:07.894Z,74.70
2023-08-29T01:08:34.860Z,74.80
2023-08-29T01:11:23.798Z,74.80
2023-08-29T01:13:56.014Z,74.90
2023-08-29T01:16:27.527Z,75.00
2023-08-29T01:18:54.506Z,75.00
2023-08-29T01:21:33.721Z,75.10
2023-08-29T01:24:07.368Z,75.10
2023-08-29T01:26:34.278Z,75.20
2023-08-29T01:29:01.956Z,75.20
2023-08-29T01:31:31.227Z,75.10
2023-08-29T01:34:01.477Z,75.20
2023-08-29T01:36:29.195Z,75.30
2023-08-29T01:38:56.155Z,75.40
2023-08-29T01:41:23.096Z,75.40
2023-08-29T01:43:50.069Z,75.40
2023-08-29T01:46:17.070Z,75.40
2023-08-29T01:48:44.066Z,75.50
2023-08-29T01:51:11.044Z,75.50
2023-08-29T01:53:40.423Z,75.50
2023-08-29T01:56:08.476Z,75.50
2023-08-29T01:58:36.522Z,75.60
2023-08-29T02:01:17.582Z,75.60
2023-08-29T02:03:50.392Z,75.60
2023-08-29T02:06:17.376Z,75.60
2023-08-29T02:08:45.906Z,75.70
2023-08-29T02:11:12.926Z,75.70
2023-08-29T02:13:39.936Z,75.70
2023-08-29T02:16:06.861Z,75.70
2023-08-29T02:18:33.824Z,75.70
2023-08-29T02:21:00.779Z,75.70
2023-08-29T02:23:27.717Z,75.70
2023-08-29T02:26:04.393Z,75.70
2023-08-29T02:28:36.579Z,75.70
2023-08-29T02:31:07.517Z,75.80
2023-08-29T02:33:35.239Z,75.80
2023-08-29T02:36:02.193Z,75.80
2023-08-29T02:38:29.161Z,75.80
2023-08-29T02:40:56.155Z,75.90
2023-08-29T02:43:23.162Z,75.90
2023-08-29T02:45:53.166Z,75.90
2023-08-29T02:48:20.144Z,76.00
2023-08-29T02:50:50.285Z,75.90
2023-08-29T02:53:20.992Z,76.00
2023-08-29T02:55:51.993Z,76.00
2023-08-29T02:58:19.994Z,76.00
2023-08-29T03:00:47.075Z,76.10
2023-08-29T03:05:43.504Z,76.10
2023-08-29T03:08:10.477Z,76.10
2023-08-29T03:10:38.178Z,76.10
2023-08-29T03:13:05.340Z,76.10
2023-08-29T03:15:35.295Z,76.10
2023-08-29T03:18:04.442Z,76.10
2023-08-29T03:20:31.839Z,76.10
2023-08-29T03:22:59.036Z,76.10
2023-08-29T03:25:26.354Z,76.00
2023-08-29T03:27:53.542Z,76.00
2023-08-29T03:30:20.549Z,75.90
2023-08-29T03:32:50.924Z,76.00
2023-08-29T03:35:18.233Z,75.90
2023-08-29T03:37:45.312Z,75.90
2023-08-29T03:40:13.226Z,75.90
2023-08-29T03:42:40.760Z,75.90
2023-08-29T03:45:09.271Z,75.90
2023-08-29T03:47:38.799Z,76.00
2023-08-29T03:50:06.783Z,76.00
2023-08-29T03:52:33.750Z,75.90
2023-08-29T03:55:00.832Z,75.90
2023-08-29T03:57:27.997Z,75.90
2023-08-29T03:59:55.069Z,76.00
2023-08-29T04:02:22.540Z,76.10
2023-08-29T04:04:52.010Z,76.00
2023-08-29T04:07:19.447Z,76.10
2023-08-29T04:09:46.414Z,76.10
2023-08-29T04:12:13.466Z,76.20
2023-08-29T04:14:40.467Z,76.20
2023-08-29T04:17:07.462Z,76.20
2023-08-29T04:19:34.853Z,76.30
2023-08-29T04:22:02.166Z,76.40
2023-08-29T04:24:30.791Z,76.40
2023-08-29T04:26:57.866Z,76.50
2023-08-29T04:29:24.825Z,76.50
2023-08-29T04:31:51.967Z,76.60
2023-08-29T04:34:19.054Z,76.60
2023-08-29T04:36:46.620Z,76.60
2023-08-29T04:39:13.724Z,76.70
2023-08-29T04:41:40.642Z,76.70
2023-08-29T04:44:07.649Z,76.80
2023-08-29T04:46:34.579Z,76.80
2023-08-29T04:49:01.560Z,76.90
2023-08-29T04:51:28.612Z,77.00
2023-08-29T04:53:55.528Z,77.10
2023-08-29T04:56:22.509Z,77.10
2023-08-29T04:58:49.472Z,77.10
2023-08-29T05:01:16.525Z,77.20
2023-08-29T05:03:43.569Z,77.30
2023-08-29T05:06:10.524Z,77.20
2023-08-29T05:08:37.928Z,77.30
2023-08-29T05:11:05.289Z,77.40
2023-08-29T05:13:32.272Z,77.50
2023-08-29T05:15:59.366Z,77.50
2023-08-29T05:18:26.406Z,77.50
2023-08-29T05:20:55.632Z,77.50
2023-08-29T05:23:23.440Z,77.60
2023-08-29T05:25:50.832Z,77.60
2023-08-29T05:28:17.728Z,77.60
2023-08-29T05:30:44.916Z,77.60
2023-08-29T05:33:13.106Z,77.60
2023-08-29T05:35:40.041Z,77.70
2023-08-29T05:38:07.438Z,77.70
2023-08-29T05:40:35.163Z,77.70
2023-08-29T05:43:02.375Z,77.70
2023-08-29T05:45:29.464Z,77.80
2023-08-29T05:47:56.446Z,77.80
2023-08-29T05:50:23.468Z,77.80
2023-08-29T05:52:50.478Z,77.80
2023-08-29T05:55:17.701Z,77.80
2023-08-29T05:57:44.711Z,77.80
2023-08-29T06:00:15.114Z,77.80
2023-08-29T06:02:42.112Z,77.80
2023-08-29T06:05:09.384Z,77.80
2023-08-29T06:07:36.364Z,77.80
2023-08-29T06:10:03.826Z,77.80
2023-08-29T06:12:30.761Z,77.70
2023-08-29T06:14:57.718Z,77.70
2023-08-29T06:17:24.600Z,77.80
2023-08-29T06:19:51.613Z,77.80
2023-08-29T06:22:18.585Z,77.80
2023-08-29T06:24:45.603Z,77.80
2023-08-29T06:27:12.524Z,77.80
2023-08-29T06:29:39.930Z,77.80
2023-08-29T06:32:07.098Z,77.80
2023-08-29T06:34:34.077Z,77.80
2023-08-29T06:37:01.128Z,77.70
2023-08-29T06:39:29.513Z,77.70
2023-08-29T06:41:56.838Z,77.80
2023-08-29T06:44:23.793Z,77.70
2023-08-29T06:46:50.782Z,77.70
2023-08-29T06:49:17.775Z,77.70
2023-08-29T06:51:45.978Z,77.70
2023-08-29T06:54:12.830Z,77.70
2023-08-29T06:56:39.800Z,77.70
2023-08-29T06:59:06.727Z,77.70
2023-08-29T07:01:34.170Z,77.70
2023-08-29T07:04:01.823Z,77.70
2023-08-29T07:06:28.745Z,77.60
2023-08-29T07:08:58.489Z,77.70
2023-08-29T07:11:25.390Z,77.70
2023-08-29T07:13:52.314Z,77.60
2023-08-29T07:16:19.385Z,77.60
2023-08-29T07:18:48.258Z,77.60
2023-08-29T07:21:15.192Z,77.50
2023-08-29T07:23:42.776Z,77.40
2023-08-29T07:26:10.110Z,77.40
2023-08-29T07:28:37.418Z,77.30
2023-08-29T07:31:04.363Z,77.30
2023-08-29T07:33:31.731Z,77.20
2023-08-29T07:39:16.883Z,77.10
2023-08-29T07:46:15.091Z,76.90
2023-08-29T07:53:07.182Z,76.70
2023-08-29T07:55:43.687Z,76.60
2023-08-29T08:05:17.296Z,76.10
2023-08-29T08:08:21.223Z,75.80
2023-08-29T08:10:54.912Z,75.70
2023-08-29T08:20:09.805Z,75.10
2023-08-29T08:36:44.596Z,74.20
2023-08-29T08:58:34.705Z,73.20
2023-08-29T09:09:32.651Z,72.70
2023-08-29T09:41:17.800Z,70.90
2023-08-29T09:43:50.748Z,70.60
2023-08-29T09:46:32.536Z,70.30
2023-08-29T09:49:01.954Z,69.90
2023-08-29T09:51:35.616Z,69.80
2023-08-29T09:54:06.084Z,69.40
2023-08-29T09:56:33.078Z,69.40
2023-08-29T09:59:00.342Z,69.20
2023-08-29T10:01:30.595Z,69.00
2023-08-29T10:03:58.802Z,68.60
2023-08-29T10:06:26.029Z,68.20
2023-08-29T10:09:00.855Z,67.90
2023-08-29T10:11:30.458Z,67.50
2023-08-29T10:14:05.664Z,67.50
2023-08-29T10:16:33.014Z,67.40
2023-08-29T10:19:06.071Z,67.00
2023-08-29T10:21:33.196Z,66.50
2023-08-29T10:24:00.413Z,66.30
2023-08-29T10:26:27.664Z,65.90
2023-08-29T10:28:54.764Z,65.70
2023-08-29T10:31:22.147Z,65.40
2023-08-29T10:33:52.184Z,65.00
2023-08-29T10:36:19.569Z,64.70
2023-08-29T10:38:49.418Z,64.60
2023-08-29T10:41:19.211Z,64.40
2023-08-29T10:43:46.674Z,64.20
2023-08-29T10:46:13.834Z,63.90
2023-08-29T10:48:48.311Z,63.70
2023-08-29T10:51:17.413Z,63.30
2023-08-29T10:53:50.752Z,63.20
2023-08-29T10:56:43.981Z,62.70
2023-08-29T10:59:36.456Z,62.50
2023-08-29T11:02:44.630Z,62.10
2023-08-29T11:08:22.579Z,61.80
2023-08-29T11:11:17.128Z,61.60
2023-08-29T11:14:13.814Z,61.20
2023-08-29T11:17:04.524Z,60.90
2023-08-29T11:19:31.670Z,60.90
2023-08-29T11:22:01.017Z,60.60
2023-08-29T11:24:47.900Z,60.30
2023-08-29T11:30:28.340Z,59.90
2023-08-29T11:33:04.937Z,59.90
2023-08-29T11:35:33.320Z,59.80
2023-08-29T11:38:00.478Z,59.40
2023-08-29T11:40:39.023Z,59.30
2023-08-29T11:43:43.417Z,59.20
2023-08-29T11:46:04.829Z,59.10
2023-08-29T11:48:33.058Z,59.00
2023-08-29T11:51:08.802Z,58.90
2023-08-29T11:53:37.554Z,58.70
2023-08-29T11:56:06.055Z,58.50
2023-08-29T11:58:34.524Z,58.30
2023-08-29T12:01:06.267Z,58.20
2023-08-29T12:03:36.118Z,58.00
2023-08-29T12:06:05.938Z,57.90
2023-08-29T12:08:42.856Z,57.90
2023-08-29T12:11:10.981Z,57.70
2023-08-29T12:13:38.498Z,57.60
2023-08-29T12:16:14.050Z,57.30
2023-08-29T12:18:41.831Z,57.10
2023-08-29T12:21:13.361Z,56.80
2023-08-29T12:23:42.658Z,56.60
2023-08-29T12:26:10.021Z,56.60
2023-08-29T12:28:37.358Z,56.50
2023-08-29T12:31:08.671Z,56.40
2023-08-29T12:33:36.468Z,56.10
2023-08-29T12:36:04.502Z,56.10
2023-08-29T12:38:34.525Z,56.00
2023-08-29T12:41:01.774Z,55.80
2023-08-29T12:43:31.198Z,55.80
2023-08-29T12:46:00.861Z,55.60
2023-08-29T12:48:33.475Z,55.30
2023-08-29T12:51:00.504Z,55.20
2023-08-29T12:53:28.610Z,55.30
2023-08-29T12:55:55.603Z,55.20
2023-08-29T12:58:22.631Z,55.20
2023-08-29T13:00:49.644Z,55.10
2023-08-29T13:03:16.738Z,55.10
2023-08-29T13:05:44.241Z,55.50
2023-08-29T13:08:11.342Z,54.80
2023-08-29T13:10:38.360Z,54.70
2023-08-29T13:13:05.495Z,54.70
2023-08-29T13:15:45.183Z,54.60
2023-08-29T13:18:17.774Z,54.70
2023-08-29T13:20:44.832Z,54.80
2023-08-29T13:23:12.023Z,54.60
2023-08-29T13:25:39.078Z,54.50
2023-08-29T13:28:07.540Z,54.50
2023-08-29T13:30:34.875Z,54.40
2023-08-29T13:33:02.053Z,54.20
2023-08-29T13:35:29.302Z,54.20
2023-08-29T13:37:56.465Z,54.20
2023-08-29T13:40:23.730Z,54.30
2023-08-29T13:42:50.875Z,54.20
2023-08-29T13:45:17.882Z,54.20
2023-08-29T13:47:46.076Z,54.10
2023-08-29T13:50:13.452Z,53.90
2023-08-29T13:52:40.634Z,53.80
2023-08-29T13:55:08.115Z,53.70
2023-08-29T13:57:35.093Z,53.70
2023-08-29T14:00:02.766Z,53.80
2023-08-29T14:02:32.869Z,53.80
2023-08-29T14:05:03.150Z,53.70
2023-08-29T14:07:30.249Z,53.70
2023-08-29T14:09:57.982Z,53.50
2023-08-29T14:12:27.542Z,53.50
2023-08-29T14:14:55.274Z,53.60
2023-08-29T14:17:24.498Z,53.60
2023-08-29T14:19:51.572Z,53.50
2023-08-29T14:22:21.633Z,53.50
2023-08-29T14:24:51.435Z,53.50
2023-08-29T14:27:24.707Z,53.60
2023-08-29T14:29:51.887Z,53.50
2023-08-29T14:32:19.917Z,53.50
2023-08-29T14:34:47.122Z,53.50
2023-08-29T14:37:14.137Z,53.50
2023-08-29T14:39:43.801Z,53.60
2023-08-29T14:42:10.840Z,53.60
2023-08-29T14:44:40.670Z,53.60
2023-08-29T14:47:12.910Z,53.60
2023-08-29T14:49:44.241Z,53.60
2023-08-29T14:52:11.402Z,53.70
2023-08-29T14:54:57.152Z,53.70
2023-08-29T14:57:27.330Z,53.60
2023-08-29T14:59:56.844Z,54.20
2023-08-29T15:02:24.187Z,53.70
2023-08-29T15:04:51.384Z,53.70
2023-08-29T15:07:18.522Z,53.60
2023-08-29T15:09:45.975Z,53.50
2023-08-29T15:12:18.825Z,53.50
2023-08-29T15:14:48.893Z,53.50
2023-08-29T15:17:22.873Z,53.50
2023-08-29T15:19:52.830Z,53.60
2023-08-29T15:22:20.009Z,53.60
2023-08-29T15:24:50.186Z,54.20
2023-08-29T15:27:17.407Z,53.60
2023-08-29T15:30:04.828Z,53.80
2023-08-29T15:32:34.544Z,53.90
2023-08-29T15:35:06.595Z,53.90
2023-08-29T15:37:34.167Z,54.10
2023-08-29T15:40:04.992Z,54.30
2023-08-29T15:42:32.861Z,54.50
2023-08-29T15:45:00.086Z,54.50
2023-08-29T15:47:27.335Z,54.70
2023-08-29T15:49:57.604Z,54.70
2023-08-29T15:52:32.310Z,54.70
2023-08-29T15:54:59.782Z,54.70
2023-08-29T15:57:26.878Z,54.80
2023-08-29T15:59:54.003Z,54.90
2023-08-29T16:02:21.160Z,55.00
2023-08-29T16:04:48.205Z,55.00
2023-08-29T16:07:15.408Z,55.10
2023-08-29T16:09:42.354Z,55.10
2023-08-29T16:12:09.505Z,55.20
2023-08-29T16:14:36.577Z,55.30
2023-08-29T16:17:03.820Z,55.30
2023-08-29T16:19:30.805Z,55.30
2023-08-29T16:21:57.821Z,55.40
2023-08-29T16:24:24.846Z,55.50
2023-08-29T16:26:51.805Z,55.60
2023-08-29T16:29:18.834Z,55.60
2023-08-29T16:31:46.267Z,55.70
2023-08-29T16:34:13.359Z,55.70
2023-08-29T16:36:40.469Z,55.70
2023-08-29T16:39:10.305Z,55.70
2023-08-29T16:42:05.306Z,55.70
2023-08-29T16:44:28.557Z,55.70
2023-08-29T16:46:55.694Z,55.80
2023-08-29T16:49:22.821Z,55.90
2023-08-29T16:51:49.971Z,56.00
2023-08-29T16:54:19.652Z,56.00
2023-08-29T16:56:48.520Z,56.10
2023-08-29T16:59:15.694Z,56.10
2023-08-29T17:01:43.608Z,56.30
2023-08-29T17:04:11.603Z,56.40
2023-08-29T17:06:38.877Z,56.50
2023-08-29T17:09:11.536Z,56.80
2023-08-29T17:11:38.617Z,56.90
2023-08-29T17:14:08.017Z,57.00
2023-08-29T17:16:35.338Z,57.10
2023-08-29T17:19:05.493Z,57.30
2023-08-29T17:21:35.693Z,57.40
2023-08-29T17:24:02.655Z,57.60
2023-08-29T17:26:29.659Z,57.60
2023-08-29T17:29:05.270Z,57.70
2023-08-29T17:31:39.834Z,57.80
2023-08-29T17:34:10.004Z,57.90
2023-08-29T17:36:47.909Z,58.10
2023-08-29T17:39:18.239Z,58.10
2023-08-29T17:41:47.272Z,58.20
2023-08-29T17:44:14.508Z,58.30
2023-08-29T17:46:41.590Z,58.30
2023-08-29T17:49:08.641Z,58.40
2023-08-29T17:51:36.679Z,58.50
2023-08-29T17:54:03.785Z,58.50
2023-08-29T17:56:32.912Z,58.60
2023-08-29T17:59:00.349Z,58.80
2023-08-29T18:01:27.406Z,58.80
2023-08-29T18:03:56.698Z,59.10
2023-08-29T18:07:22.244Z,59.40
2023-08-29T18:10:14.464Z,59.90
2023-08-29T18:12:41.708Z,60.40
2023-08-29T18:15:11.610Z,60.60
2023-08-29T18:21:02.616Z,61.80
2023-08-29T18:23:30.134Z,62.00
2023-08-29T18:25:58.649Z,62.50
2023-08-29T18:28:29.301Z,62.90
2023-08-29T18:31:00.905Z,63.30
2023-08-29T18:33:30.587Z,63.60
2023-08-29T18:36:23.965Z,63.80
2023-08-29T18:38:56.199Z,64.20
2023-08-29T18:41:23.156Z,64.30
2023-08-29T18:43:50.219Z,64.50
2023-08-29T18:46:18.288Z,64.70
2023-08-29T18:48:45.719Z,65.00
2023-08-29T18:51:12.790Z,65.30
2023-08-29T18:53:39.778Z,65.60
2023-08-29T18:56:06.840Z,66.10
2023-08-29T18:58:37.192Z,66.60
2023-08-29T19:01:04.682Z,67.10
2023-08-29T19:03:32.166Z,67.60
2023-08-29T19:05:59.585Z,68.20
2023-08-29T19:08:26.773Z,68.70
2023-08-29T19:10:53.845Z,69.20
2023-08-29T19:13:23.550Z,69.80
2023-08-29T19:15:52.972Z,70.30
2023-08-29T19:18:23.286Z,70.80
2023-08-29T19:20:50.585Z,71.20
2023-08-29T19:23:18.089Z,71.60
2023-08-29T19:25:45.159Z,72.00
2023-08-29T19:28:12.294Z,72.40
2023-08-29T19:30:39.350Z,72.80
2023-08-29T19:33:06.494Z,73.10
2023-08-29T19:35:36.573Z,73.40
2023-08-29T19:38:04.200Z,73.80
2023-08-29T19:40:31.303Z,74.10
2023-08-29T19:43:03.063Z,74.30
2023-08-29T19:45:35.448Z,74.60
2023-08-29T19:48:04.162Z,74.80
2023-08-29T19:50:38.763Z,74.90
2023-08-29T19:53:06.129Z,75.20
2023-08-29T19:55:33.266Z,75.30
2023-08-29T19:58:00.357Z,75.50
2023-08-29T20:00:27.392Z,75.70
2023-08-29T20:02:54.435Z,75.80
2023-08-29T20:05:21.460Z,76.00
2023-08-29T20:07:48.827Z,76.20
2023-08-29T20:10:15.858Z,76.70
2023-08-29T20:12:43.436Z,76.40
2023-08-29T20:15:11.142Z,76.60
2023-08-29T20:17:38.227Z,76.70
2023-08-29T20:20:06.738Z,76.90
2023-08-29T20:22:33.679Z,77.10
2023-08-29T20:25:00.831Z,77.30
2023-08-29T20:27:27.720Z,77.40
2023-08-29T20:29:54.717Z,77.60
2023-08-29T20:32:22.817Z,77.80
2023-08-29T20:35:00.210Z,78.00
2023-08-29T20:37:30.397Z,78.10
2023-08-29T20:39:57.441Z,78.30
2023-08-29T20:42:24.335Z,78.40
2023-08-29T20:44:54.115Z,78.60
2023-08-29T20:47:21.225Z,78.70
2023-08-29T20:49:48.192Z,78.90
2023-08-29T20:52:15.136Z,79.00
2023-08-29T20:54:44.152Z,79.10
2023-08-29T20:57:11.224Z,79.20
2023-08-29T20:59:38.220Z,79.30
2023-08-29T21:02:05.408Z,79.40
2023-08-29T21:04:33.125Z,79.50
2023-08-29T21:07:00.562Z,79.50
2023-08-29T21:09:27.476Z,79.60
2023-08-29T21:11:55.738Z,79.70
2023-08-29T21:14:25.349Z,79.80
2023-08-29T21:16:52.348Z,80.00
2023-08-29T21:19:19.271Z,80.00
2023-08-29T21:21:46.299Z,80.10
2023-08-29T21:24:13.146Z,80.20
2023-08-29T21:26:40.078Z,80.30
2023-08-29T21:29:08.507Z,80.40
2023-08-29T21:31:35.419Z,80.50
2023-08-29T21:34:02.441Z,80.60
2023-08-29T21:36:29.496Z,80.70
2023-08-29T21:38:57.175Z,80.90
2023-08-29T21:41:25.647Z,81.00
2023-08-29T21:43:52.899Z,81.10
2023-08-29T21:46:19.852Z,81.30
2023-08-29T21:48:46.798Z,81.40
2023-08-29T21:51:13.897Z,81.40
2023-08-29T21:53:40.801Z,81.50
2023-08-29T21:56:10.825Z,81.60
2023-08-29T21:58:37.688Z,81.60
2023-08-29T22:01:04.602Z,81.70
2023-08-29T22:03:31.613Z,81.80
2023-08-29T22:05:58.566Z,81.80
2023-08-29T22:08:25.901Z,81.90
2023-08-29T22:10:52.877Z,81.90
2023-08-29T22:13:19.855Z,81.90
2023-08-29T22:15:46.872Z,82.10
2023-08-29T22:18:14.228Z,82.10
2023-08-29T22:20:41.351Z,82.30
2023-08-29T22:23:08.368Z,82.40
2023-08-29T22:25:35.963Z,82.50
2023-08-29T22:28:02.977Z,82.40
2023-08-29T22:30:29.837Z,82.50
2023-08-29T22:32:56.986Z,82.50
2023-08-29T22:35:23.917Z,82.50
2023-08-29T22:37:50.911Z,82.50
2023-08-29T22:40:17.890Z,82.60
2023-08-29T22:42:45.734Z,82.60
2023-08-29T22:45:14.633Z,82.70
2023-08-29T22:47:42.267Z,82.80
2023-08-29T22:50:09.533Z,82.80
2023-08-29T22:52:39.673Z,82.80
2023-08-29T22:55:07.110Z,82.80
2023-08-29T22:57:33.993Z,82.90
2023-08-29T23:00:00.982Z,82.90
2023-08-29T23:02:27.987Z,82.90
2023-08-29T23:04:54.889Z,83.00
2023-08-29T23:07:23.283Z,83.00
2023-08-29T23:09:50.234Z,83.10
2023-08-29T23:12:17.160Z,83.20
2023-08-29T23:14:44.311Z,83.20
2023-08-29T23:17:11.975Z,83.20
2023-08-29T23:19:38.965Z,83.30
2023-08-29T23:22:05.896Z,83.30
2023-08-29T23:24:33.001Z,83.40
2023-08-29T23:26:59.994Z,83.40
2023-08-29T23:29:26.945Z,83.50
2023-08-29T23:31:53.902Z,83.60
2023-08-29T23:34:20.851Z,83.50
2023-08-29T23:36:47.878Z,83.50
2023-08-29T23:39:14.802Z,83.50
2023-08-29T23:41:41.916Z,83.50
2023-08-29T23:44:08.808Z,83.50
2023-08-29T23:46:35.721Z,83.50
2023-08-29T23:49:02.602Z,83.50
2023-08-29T23:51:29.563Z,83.40
2023-08-29T23:53:56.540Z,83.30
2023-08-29T23:56:23.413Z,83.20
2023-08-29T23:58:50.278Z,83.20
